Aérodrome :
LOGIN :

S'inscrire | Disclaimer

   EN    FR    IT 

 










Légende :    VFR   VFR Marginal   IFR   IFR Intensif   IFR Très Intensif
Visi : 
Plafond : 
>= 8 km
>= 3000ft
5 à 8 km
1000 à 3000 ft
1500m à 5 km
500 à 1000 ft
800 à 1500m
200 à 500 ft
< 800m
< 200 ft
Symboles :   Orages  Brouillard  Fortes neiges  Fortes précipitations  Vent > 20 kt
SIGMETs :   Divers  Orages  Givrage  Turbulence  Onde Orograph.  Cendres Volcan.






- Altitude de l'aérodrome : 238 ft
- Code IATA : FAB


EGLF - Farnborough

DERNIER METAR :
  • 030950Z AUTO 30006KT 270V330 9999 NCD 17/10 Q1008

METARs EXPIRÉS :
  • 030920Z AUTO 31006KT 280V350 9999 NCD 17/10 Q1008
  • 030850Z AUTO 31005KT 9999 NCD 17/10 Q1008
  • 030820Z AUTO 29004KT 260V330 9999 NCD 17/10 Q1008
  • 030750Z AUTO 32005KT 290V350 9999 NCD 16/09 Q1008
  • 030720Z AUTO 31005KT 290V350 9999 NCD 16/09 Q1008
  • 030650Z AUTO 32004KT 280V350 9999 NCD 15/09 Q1009

TAF TAF EGLF
Valide du 03 à 09h jusqu'au 03 à 18h UTC


030801Z 0309/0318 32005KT CAVOK
BECMG 0309/0311 03010KT BKN030
TEMPO 0309/0318 8000 -RA
PROB30
TEMPO 0309/0318 SHRA RA BKN012
ATIS : +44 09063 800 400 (*282)



MET'MAP, la Météo Aéronautique d'un coup d'oeil ! - Copyright ORBIFLY Décembre 2007 - Disclaimer

ORBIFLY MET'MAP TEAM :

Programmation & Développement : Alexandra Zaïnal
Sur une idée originale de : Baudouin d'Aumeries
Assistance à la programmation : Marc-Olivier Méhu
Soutien technique & logistique : Manuel Goepfert

Contact : metmap@orbifly.com




SOURCES & CREDITS :

   NOAA